createdAt,value
2019-04-16T00:00:02.348Z,85.10
2019-04-16T00:00:37.450Z,79.42
2019-04-16T00:01:15.158Z,74.97
2019-04-16T00:01:50.213Z,79.90
2019-04-16T00:02:40.436Z,75.57
2019-04-16T00:03:13.864Z,68.33
2019-04-16T00:03:54.105Z,73.50
2019-04-16T00:04:34.353Z,74.25
2019-04-16T00:06:01.523Z,69.70
2019-04-16T00:06:36.573Z,76.50
2019-04-16T00:07:23.528Z,75.75
2019-04-16T00:07:58.597Z,77.62
2019-04-16T00:08:33.663Z,73.65
2019-04-16T00:09:11.296Z,81.67
2019-04-16T00:09:55.268Z,69.27
2019-04-16T00:10:32.938Z,78.80
2019-04-16T00:11:13.683Z,79.17
2019-04-16T00:12:00.839Z,70.67
2019-04-16T00:12:48.020Z,76.07
2019-04-16T00:13:28.940Z,74.50
2019-04-16T00:14:39.673Z,76.65
2019-04-16T00:15:13.161Z,78.83
2019-04-16T00:15:46.590Z,70.40
2019-04-16T00:16:20.032Z,76.25
2019-04-16T00:16:53.505Z,75.65
2019-04-16T00:17:26.896Z,75.28
2019-04-16T00:18:00.315Z,76.87
2019-04-16T00:18:33.739Z,77.32
2019-04-16T00:19:07.161Z,70.92
2019-04-16T00:19:40.576Z,74.60
2019-04-16T00:20:13.992Z,83.37
2019-04-16T00:20:52.084Z,69.45
2019-04-16T00:21:27.150Z,69.40
2019-04-16T00:22:02.237Z,70.05
2019-04-16T00:22:37.313Z,70.10
2019-04-16T00:23:12.385Z,71.05
2019-04-16T00:23:47.451Z,65.87
2019-04-16T00:24:22.571Z,77.87
2019-04-16T00:24:55.938Z,74.72
2019-04-16T00:25:29.353Z,67.80
2019-04-16T00:26:02.786Z,65.00
2019-04-16T00:26:36.197Z,74.22
2019-04-16T00:27:09.622Z,72.12
2019-04-16T00:27:43.052Z,75.55
2019-04-16T00:28:16.564Z,72.22
2019-04-16T00:28:49.992Z,76.50
2019-04-16T00:29:23.398Z,72.32
2019-04-16T00:29:56.817Z,75.08
2019-04-16T00:30:30.236Z,78.62
2019-04-16T00:31:04.683Z,81.45
2019-04-16T00:31:39.198Z,73.30
2019-04-16T00:32:14.259Z,78.35
2019-04-16T00:32:47.687Z,85.12
2019-04-16T00:33:21.126Z,83.00
2019-04-16T00:33:54.609Z,73.50
2019-04-16T00:34:28.041Z,87.12
2019-04-16T00:35:01.458Z,79.25
2019-04-16T00:35:34.871Z,74.77
2019-04-16T00:36:08.302Z,77.03
2019-04-16T00:36:41.714Z,76.40
2019-04-16T00:37:15.132Z,77.05
2019-04-16T00:37:51.480Z,75.57
2019-04-16T00:38:23.631Z,77.30
2019-04-16T00:38:57.250Z,76.37
2019-04-16T00:39:30.729Z,72.92
2019-04-16T00:40:05.975Z,91.80
2019-04-16T00:40:39.397Z,74.72
2019-04-16T00:41:12.812Z,80.45
2019-04-16T00:41:46.237Z,82.72
2019-04-16T00:42:19.657Z,83.00
2019-04-16T00:42:53.071Z,74.30
2019-04-16T00:43:26.495Z,88.00
2019-04-16T00:43:59.932Z,77.72
2019-04-16T00:44:33.368Z,71.02
2019-04-16T00:45:06.810Z,69.85
2019-04-16T00:45:40.233Z,66.45
2019-04-16T00:46:13.649Z,67.58
2019-04-16T00:46:47.070Z,66.75
2019-04-16T00:47:20.491Z,71.15
2019-04-16T00:47:53.920Z,69.07
2019-04-16T00:48:27.342Z,84.05
2019-04-16T00:49:00.760Z,81.42
2019-04-16T00:49:34.180Z,80.20
2019-04-16T00:50:07.693Z,76.05
2019-04-16T00:50:41.131Z,74.10
2019-04-16T00:51:14.550Z,65.50
2019-04-16T00:51:47.977Z,67.37
2019-04-16T00:52:21.387Z,58.75
2019-04-16T00:52:54.809Z,71.85
2019-04-16T00:53:28.232Z,62.43
2019-04-16T00:54:01.658Z,70.42
2019-04-16T00:54:35.081Z,78.20
2019-04-16T00:55:08.498Z,80.50
2019-04-16T00:55:42.289Z,70.05
2019-04-16T00:56:17.041Z,64.65
2019-04-16T00:56:50.473Z,73.35
2019-04-16T00:57:23.879Z,71.40
2019-04-16T00:57:57.295Z,73.85
2019-04-16T00:58:30.720Z,63.87
2019-04-16T00:59:04.232Z,59.18
2019-04-16T00:59:37.675Z,56.45
2019-04-16T01:00:11.101Z,56.15
2019-04-16T01:00:44.524Z,51.63
2019-04-16T01:01:17.964Z,56.53
2019-04-16T01:01:51.395Z,60.45
2019-04-16T01:02:24.812Z,56.15
2019-04-16T01:02:58.411Z,57.58
2019-04-16T01:03:31.857Z,56.40
2019-04-16T01:04:05.568Z,58.33
2019-04-16T01:04:39.440Z,58.00
2019-04-16T01:05:12.859Z,57.58
2019-04-16T01:05:46.279Z,62.83
2019-04-16T01:06:19.702Z,55.88
2019-04-16T01:06:53.140Z,56.90
2019-04-16T01:07:26.587Z,57.53
2019-04-16T01:08:00.000Z,48.90
2019-04-16T01:08:33.424Z,52.67
2019-04-16T01:09:07.215Z,55.90
2019-04-16T01:09:40.638Z,57.27
2019-04-16T01:10:14.046Z,58.90
2019-04-16T01:10:47.476Z,55.10
2019-04-16T01:11:20.904Z,50.52
2019-04-16T01:11:54.322Z,49.55
2019-04-16T01:12:27.767Z,47.13
2019-04-16T01:13:01.219Z,47.45
2019-04-16T01:13:34.635Z,45.52
2019-04-16T01:14:08.056Z,47.65
2019-04-16T01:14:41.478Z,49.55
2019-04-16T01:15:14.896Z,49.60
2019-04-16T01:15:48.314Z,48.33
2019-04-16T01:16:21.752Z,43.87
2019-04-16T01:16:55.174Z,47.95
2019-04-16T01:17:28.628Z,46.40
2019-04-16T01:18:04.563Z,44.63
2019-04-16T01:18:38.830Z,44.08
2019-04-16T01:19:12.200Z,45.30
2019-04-16T01:19:45.617Z,47.10
2019-04-16T01:20:19.032Z,51.58
2019-04-16T01:20:52.451Z,49.55
2019-04-16T01:21:25.868Z,46.77
2019-04-16T01:21:59.362Z,40.67
2019-04-16T01:22:32.785Z,39.33
2019-04-16T01:23:06.209Z,40.83
2019-04-16T01:23:39.652Z,40.95
2019-04-16T01:24:13.088Z,39.58
2019-04-16T01:24:46.512Z,36.85
2019-04-16T01:25:20.326Z,41.33
2019-04-16T01:25:55.657Z,40.35
2019-04-16T01:26:29.622Z,36.15
2019-04-16T01:27:03.211Z,42.93
2019-04-16T01:27:38.264Z,37.75
2019-04-16T01:28:22.224Z,41.48
2019-04-16T01:29:02.630Z,36.42
2019-04-16T01:29:35.371Z,34.38
2019-04-16T01:30:10.574Z,31.93
2019-04-16T01:30:51.711Z,34.38
2019-04-16T01:31:41.787Z,32.30
2019-04-16T01:32:22.566Z,36.35
2019-04-16T01:33:14.669Z,33.58
2019-04-16T01:34:06.716Z,34.55
2019-04-16T01:34:53.764Z,31.82
2019-04-16T01:35:34.400Z,33.95
2019-04-16T01:36:11.958Z,32.45
2019-04-16T01:37:04.974Z,32.10
2019-04-16T01:37:57.430Z,34.50
2019-04-16T01:38:32.635Z,36.40
2019-04-16T01:39:17.715Z,34.05
2019-04-16T01:39:54.218Z,36.63
2019-04-16T01:40:29.308Z,38.25
2019-04-16T01:41:07.101Z,32.50
2019-04-16T01:41:40.527Z,37.20
2019-04-16T01:42:13.948Z,38.70
2019-04-16T01:42:47.368Z,34.53
2019-04-16T01:43:25.561Z,34.98
2019-04-16T01:43:57.197Z,34.60
2019-04-16T01:44:30.933Z,37.03
2019-04-16T01:45:05.883Z,35.80
2019-04-16T01:45:39.328Z,34.33
2019-04-16T01:46:12.779Z,39.03
2019-04-16T01:46:46.193Z,38.75
2019-04-16T01:47:19.616Z,36.95
2019-04-16T01:47:53.031Z,35.70
2019-04-16T01:48:26.455Z,32.15
2019-04-16T01:48:59.873Z,35.48
2019-04-16T01:49:33.297Z,30.17
2019-04-16T01:50:06.712Z,34.23
2019-04-16T01:50:43.512Z,34.48
2019-04-16T01:51:16.129Z,34.27
2019-04-16T01:51:49.666Z,34.20
2019-04-16T01:52:23.091Z,38.30
2019-04-16T01:52:56.505Z,39.83
2019-04-16T01:53:29.929Z,38.02
2019-04-16T01:54:03.353Z,37.90
2019-04-16T01:54:36.777Z,38.35
2019-04-16T01:55:10.196Z,40.55
2019-04-16T01:55:43.607Z,37.53
2019-04-16T01:56:17.029Z,35.48
2019-04-16T01:56:50.475Z,33.53
2019-04-16T01:57:23.976Z,38.33
2019-04-16T01:57:59.672Z,36.23
2019-04-16T01:58:33.906Z,36.35
2019-04-16T01:59:07.536Z,32.70
2019-04-16T01:59:40.951Z,32.23
2019-04-16T02:00:14.555Z,38.25
2019-04-16T02:00:47.978Z,34.95
2019-04-16T02:01:21.412Z,35.60
2019-04-16T02:01:54.829Z,36.00
2019-04-16T02:02:28.264Z,42.90
2019-04-16T02:03:01.885Z,38.00
2019-04-16T02:03:35.325Z,33.98
2019-04-16T02:04:08.745Z,36.63
2019-04-16T02:04:42.168Z,33.15
2019-04-16T02:05:15.594Z,34.80
2019-04-16T02:05:49.010Z,31.17
2019-04-16T02:06:25.675Z,37.50
2019-04-16T02:06:57.881Z,37.10
2019-04-16T02:07:31.625Z,36.38
2019-04-16T02:08:05.065Z,30.90
2019-04-16T02:08:38.505Z,33.18
2019-04-16T02:09:22.366Z,32.48
2019-04-16T02:09:46.993Z,29.32
2019-04-16T02:10:20.418Z,35.08
2019-04-16T02:10:53.835Z,38.40
2019-04-16T02:11:27.252Z,32.28
2019-04-16T02:12:00.672Z,33.33
2019-04-16T02:12:34.096Z,33.02
2019-04-16T02:13:07.520Z,30.65
2019-04-16T02:13:45.826Z,30.15
2019-04-16T02:14:18.455Z,35.35
2019-04-16T02:14:51.487Z,29.45
2019-04-16T02:15:24.908Z,30.85
2019-04-16T02:15:58.328Z,28.52
2019-04-16T02:16:31.729Z,30.27
2019-04-16T02:17:05.181Z,31.87
2019-04-16T02:17:38.576Z,29.90
2019-04-16T02:18:11.993Z,26.02
2019-04-16T02:18:45.415Z,27.62
2019-04-16T02:19:18.863Z,30.15
2019-04-16T02:19:52.302Z,33.10
2019-04-16T02:20:25.722Z,30.55
2019-04-16T02:20:59.141Z,28.77
2019-04-16T02:21:32.567Z,27.98
2019-04-16T02:22:06.197Z,33.53
2019-04-16T02:22:42.245Z,29.42
2019-04-16T02:23:16.799Z,33.40
2019-04-16T02:23:49.851Z,31.27
2019-04-16T02:24:23.270Z,30.85
2019-04-16T02:24:56.721Z,27.82
2019-04-16T02:25:30.175Z,31.97
2019-04-16T02:26:04.117Z,33.98
2019-04-16T02:26:37.795Z,25.60
2019-04-16T02:27:11.217Z,27.93
2019-04-16T02:27:44.636Z,29.77
2019-04-16T02:28:21.348Z,28.98
2019-04-16T02:28:53.127Z,24.65
2019-04-16T02:29:29.730Z,25.32
2019-04-16T02:30:04.102Z,23.15
2019-04-16T02:30:39.895Z,26.68
2019-04-16T02:31:16.105Z,23.65
2019-04-16T02:31:51.794Z,27.98
2019-04-16T02:32:23.801Z,31.30
2019-04-16T02:32:57.245Z,30.65
2019-04-16T02:33:30.649Z,30.57
2019-04-16T02:34:04.072Z,29.23
2019-04-16T02:34:37.490Z,26.33
2019-04-16T02:35:10.965Z,32.63
2019-04-16T02:35:44.327Z,29.07
2019-04-16T02:36:17.773Z,29.00
2019-04-16T02:36:51.237Z,26.12
2019-04-16T02:37:24.637Z,30.37
2019-04-16T02:37:58.065Z,27.48
2019-04-16T02:38:31.478Z,28.02
2019-04-16T02:39:08.141Z,31.02
2019-04-16T02:39:49.603Z,30.57
2019-04-16T02:40:18.598Z,32.65
2019-04-16T02:40:53.174Z,23.98
2019-04-16T02:41:26.814Z,25.45
2019-04-16T02:42:00.547Z,27.58
2019-04-16T02:42:34.303Z,28.55
2019-04-16T02:43:08.368Z,28.27
2019-04-16T02:43:41.925Z,25.27
2019-04-16T02:44:17.007Z,26.85
2019-04-16T02:44:50.581Z,22.45
2019-04-16T02:45:24.550Z,26.35
2019-04-16T02:45:58.846Z,26.25
2019-04-16T02:46:32.822Z,28.00
2019-04-16T02:47:08.052Z,25.95
2019-04-16T02:47:42.419Z,28.23
2019-04-16T02:48:17.277Z,28.52
2019-04-16T02:48:51.790Z,24.25
2019-04-16T02:49:25.435Z,25.00
2019-04-16T02:49:59.836Z,27.17
2019-04-16T02:50:44.267Z,22.95
2019-04-16T02:51:31.494Z,26.05
2019-04-16T02:52:06.556Z,23.07
2019-04-16T02:52:51.108Z,27.65
2019-04-16T02:53:38.686Z,27.58
2019-04-16T02:54:32.373Z,32.28
2019-04-16T02:55:11.825Z,23.35
2019-04-16T02:55:46.888Z,25.82
2019-04-16T02:56:21.957Z,26.45
2019-04-16T02:56:57.022Z,25.40
2019-04-16T02:57:32.085Z,22.20
2019-04-16T02:58:07.139Z,27.48
2019-04-16T02:58:48.220Z,27.58
2019-04-16T02:59:32.456Z,28.65
2019-04-16T03:00:07.514Z,26.17
2019-04-16T03:00:42.614Z,26.05
2019-04-16T03:01:23.353Z,30.12
2019-04-16T03:02:01.584Z,26.80
2019-04-16T03:02:39.363Z,25.37
2019-04-16T03:03:22.244Z,25.12
2019-04-16T03:03:57.161Z,25.70
2019-04-16T03:04:32.240Z,24.98
2019-04-16T03:05:07.872Z,32.40
2019-04-16T03:05:42.937Z,25.62
2019-04-16T03:06:16.366Z,23.10
2019-04-16T03:06:49.784Z,27.42
2019-04-16T03:07:23.203Z,27.07
2019-04-16T03:07:56.634Z,25.48
2019-04-16T03:08:30.043Z,24.65
2019-04-16T03:09:08.537Z,27.93
2019-04-16T03:09:41.017Z,26.70
2019-04-16T03:10:14.519Z,26.60
2019-04-16T03:10:48.673Z,27.93
2019-04-16T03:11:22.091Z,25.77
2019-04-16T03:11:55.512Z,24.20
2019-04-16T03:12:28.939Z,23.22
2019-04-16T03:13:02.360Z,27.82
2019-04-16T03:13:35.775Z,27.25
2019-04-16T03:14:09.190Z,23.05
2019-04-16T03:14:42.613Z,27.27
2019-04-16T03:15:17.699Z,25.92
2019-04-16T03:15:55.763Z,22.93
2019-04-16T03:16:47.002Z,24.05
2019-04-16T03:17:22.056Z,29.10
2019-04-16T03:17:55.486Z,25.92
2019-04-16T03:18:30.555Z,26.52
2019-04-16T03:19:05.613Z,28.10
2019-04-16T03:19:51.295Z,27.15
2019-04-16T03:20:24.920Z,26.60
2019-04-16T03:20:58.364Z,26.50
2019-04-16T03:21:31.795Z,27.07
2019-04-16T03:22:05.287Z,24.05
2019-04-16T03:22:38.709Z,28.70
2019-04-16T03:23:12.128Z,29.15
2019-04-16T03:23:45.545Z,30.82
2019-04-16T03:24:18.963Z,26.27
2019-04-16T03:24:52.393Z,30.15
2019-04-16T03:25:25.821Z,29.18
2019-04-16T03:25:59.239Z,25.40
2019-04-16T03:26:32.688Z,29.85
2019-04-16T03:27:06.134Z,29.65
2019-04-16T03:27:39.556Z,26.95
2019-04-16T03:28:13.168Z,25.15
2019-04-16T03:28:46.615Z,29.37
2019-04-16T03:29:20.032Z,28.15
2019-04-16T03:29:53.446Z,27.17
2019-04-16T03:30:26.891Z,27.17
2019-04-16T03:31:00.290Z,32.10
2019-04-16T03:31:33.739Z,26.82
2019-04-16T03:32:12.431Z,25.97
2019-04-16T03:32:49.931Z,28.17
2019-04-16T03:33:23.392Z,24.90
2019-04-16T03:33:56.888Z,24.65
2019-04-16T03:34:30.302Z,27.42
2019-04-16T03:35:04.977Z,29.67
2019-04-16T03:35:38.391Z,27.93
2019-04-16T03:36:11.809Z,26.70
2019-04-16T03:36:45.235Z,27.93
2019-04-16T03:37:18.684Z,27.80
2019-04-16T03:37:52.126Z,26.85
2019-04-16T03:38:25.556Z,24.23
2019-04-16T03:38:58.969Z,29.90
2019-04-16T03:39:32.394Z,26.62
2019-04-16T03:40:16.529Z,26.45
2019-04-16T03:40:41.452Z,27.50
2019-04-16T03:41:14.876Z,27.10
2019-04-16T03:41:48.301Z,22.10
2019-04-16T03:42:24.450Z,29.15
2019-04-16T03:42:59.261Z,32.08
2019-04-16T03:43:32.809Z,30.00
2019-04-16T03:44:06.708Z,22.87
2019-04-16T03:44:40.125Z,27.42
2019-04-16T03:45:13.552Z,27.22
2019-04-16T03:45:46.978Z,25.05
2019-04-16T03:46:20.399Z,24.50
2019-04-16T03:46:53.827Z,28.83
2019-04-16T03:47:27.237Z,26.60
2019-04-16T03:48:00.660Z,25.37
2019-04-16T03:48:34.097Z,23.42
2019-04-16T03:49:07.535Z,27.40
2019-04-16T03:49:40.958Z,27.00
2019-04-16T03:50:14.423Z,25.00
2019-04-16T03:50:47.788Z,27.07
2019-04-16T03:51:21.213Z,25.77
2019-04-16T03:51:54.633Z,28.55
2019-04-16T03:52:28.053Z,27.45
2019-04-16T03:53:01.511Z,25.27
2019-04-16T03:53:34.901Z,24.18
2019-04-16T03:54:08.344Z,25.62
2019-04-16T03:54:41.798Z,26.87
2019-04-16T03:55:15.207Z,26.50
2019-04-16T03:55:48.633Z,24.07
2019-04-16T03:56:22.058Z,26.23
2019-04-16T03:56:55.478Z,25.55
2019-04-16T03:57:32.692Z,24.65
2019-04-16T03:58:06.052Z,25.80
2019-04-16T03:58:39.378Z,27.50
2019-04-16T03:59:12.947Z,22.73
2019-04-16T03:59:46.391Z,27.07
2019-04-16T04:00:19.898Z,21.65
2019-04-16T04:00:53.316Z,31.25
2019-04-16T04:01:26.737Z,24.67
2019-04-16T04:02:00.147Z,26.37
2019-04-16T04:02:33.569Z,26.55
2019-04-16T04:03:07.065Z,26.02
2019-04-16T04:03:40.485Z,26.75
2019-04-16T04:04:13.908Z,24.57
2019-04-16T04:04:47.336Z,22.35
2019-04-16T04:05:20.782Z,28.15
2019-04-16T04:05:57.820Z,26.33
2019-04-16T04:06:31.235Z,27.62
2019-04-16T04:07:04.658Z,23.32
2019-04-16T04:07:38.082Z,28.02
2019-04-16T04:08:16.101Z,26.77
2019-04-16T04:08:48.302Z,26.87
2019-04-16T04:09:22.143Z,27.10
2019-04-16T04:09:58.727Z,20.82
2019-04-16T04:10:36.816Z,24.50
2019-04-16T04:11:10.182Z,21.07
2019-04-16T04:11:41.983Z,24.30
2019-04-16T04:12:15.717Z,28.57
2019-04-16T04:12:49.130Z,25.02
2019-04-16T04:13:22.620Z,22.17
2019-04-16T04:13:56.044Z,23.95
2019-04-16T04:14:29.460Z,25.62
2019-04-16T04:15:03.354Z,24.35
2019-04-16T04:15:36.776Z,22.77
2019-04-16T04:16:10.192Z,25.80
2019-04-16T04:16:43.638Z,23.25
2019-04-16T04:17:17.073Z,24.02
2019-04-16T04:17:50.500Z,24.15
2019-04-16T04:18:23.926Z,25.70
2019-04-16T04:18:57.526Z,21.10
2019-04-16T04:19:30.945Z,26.27
2019-04-16T04:20:06.237Z,25.52
2019-04-16T04:20:39.629Z,27.52
2019-04-16T04:21:13.054Z,28.35
2019-04-16T04:21:46.489Z,28.50
2019-04-16T04:22:22.780Z,26.42
2019-04-16T04:22:57.062Z,26.23
2019-04-16T04:23:30.152Z,27.30
2019-04-16T04:24:03.578Z,23.87
2019-04-16T04:24:36.996Z,28.47
2019-04-16T04:25:10.639Z,20.48
2019-04-16T04:25:44.245Z,24.87
2019-04-16T04:26:17.654Z,23.18
2019-04-16T04:26:51.074Z,26.15
2019-04-16T04:27:24.493Z,22.67
2019-04-16T04:27:57.938Z,22.70
2019-04-16T04:28:31.383Z,24.12
2019-04-16T04:29:06.334Z,22.70
2019-04-16T04:29:39.819Z,21.02
2019-04-16T04:30:13.477Z,21.75
2019-04-16T04:30:48.773Z,23.57
2019-04-16T04:31:22.056Z,19.75
2019-04-16T04:31:55.459Z,19.67
2019-04-16T04:32:28.876Z,23.77
2019-04-16T04:33:07.410Z,21.62
2019-04-16T04:33:41.938Z,22.80
2019-04-16T04:34:15.390Z,20.10
2019-04-16T04:34:48.687Z,17.77
2019-04-16T04:35:23.029Z,18.45
2019-04-16T04:35:56.446Z,25.43
2019-04-16T04:36:31.745Z,20.80
2019-04-16T04:37:05.244Z,20.97
2019-04-16T04:37:38.660Z,21.55
2019-04-16T04:38:12.076Z,24.43
2019-04-16T04:38:45.541Z,19.20
2019-04-16T04:39:18.978Z,16.80
2019-04-16T04:39:52.413Z,22.65
2019-04-16T04:40:26.276Z,23.25
2019-04-16T04:40:59.941Z,27.17
2019-04-16T04:41:33.654Z,26.07
2019-04-16T04:42:07.135Z,21.55
2019-04-16T04:42:40.579Z,23.05
2019-04-16T04:43:14.078Z,23.52
2019-04-16T04:43:47.510Z,21.95
2019-04-16T04:44:22.292Z,20.65
2019-04-16T04:44:56.102Z,24.18
2019-04-16T04:45:29.607Z,23.05
2019-04-16T04:46:03.133Z,18.23
2019-04-16T04:46:36.581Z,28.02
2019-04-16T04:47:10.138Z,20.77
2019-04-16T04:47:43.556Z,20.72
2019-04-16T04:48:17.048Z,20.05
2019-04-16T04:48:55.023Z,18.10
2019-04-16T04:49:30.014Z,23.12
2019-04-16T04:50:03.499Z,21.45
2019-04-16T04:50:36.082Z,19.73
2019-04-16T04:51:10.113Z,22.55
2019-04-16T04:51:43.907Z,20.25
2019-04-16T04:52:17.327Z,19.37
2019-04-16T04:52:50.935Z,23.77
2019-04-16T04:53:24.368Z,17.95
2019-04-16T04:53:58.460Z,22.17
2019-04-16T04:54:31.854Z,23.80
2019-04-16T04:55:05.961Z,21.37
2019-04-16T04:55:39.433Z,20.52
2019-04-16T04:56:12.861Z,19.42
2019-04-16T04:56:46.378Z,18.48
2019-04-16T04:57:19.970Z,20.12
2019-04-16T04:57:53.387Z,21.12
2019-04-16T04:58:27.136Z,19.70
2019-04-16T04:59:02.429Z,18.10
2019-04-16T04:59:36.867Z,27.48
2019-04-16T05:00:10.913Z,21.50
2019-04-16T05:00:44.333Z,21.33
2019-04-16T05:01:17.758Z,19.90
2019-04-16T05:01:51.200Z,30.80
2019-04-16T05:02:24.650Z,21.20
2019-04-16T05:02:58.059Z,25.30
2019-04-16T05:03:44.432Z,22.82
2019-04-16T05:04:33.651Z,18.12
2019-04-16T05:05:24.563Z,20.92
2019-04-16T05:06:06.436Z,20.90
2019-04-16T05:06:41.494Z,19.32
2019-04-16T05:07:16.577Z,24.75
2019-04-16T05:07:50.015Z,20.65
2019-04-16T05:08:23.437Z,21.97
2019-04-16T05:08:57.676Z,20.32
2019-04-16T05:09:35.194Z,26.85
2019-04-16T05:10:07.462Z,20.43
2019-04-16T05:10:43.312Z,23.00
2019-04-16T05:11:17.089Z,23.47
2019-04-16T05:11:50.626Z,18.52
2019-04-16T05:12:24.045Z,20.72
2019-04-16T05:12:57.489Z,18.37
2019-04-16T05:13:30.923Z,23.45
2019-04-16T05:14:04.346Z,26.05
2019-04-16T05:14:39.409Z,19.32
2019-04-16T05:15:12.836Z,20.52
2019-04-16T05:15:46.252Z,18.32
2019-04-16T05:16:19.837Z,23.95
2019-04-16T05:16:53.503Z,21.77
2019-04-16T05:17:28.602Z,25.35
2019-04-16T05:18:02.060Z,22.05
2019-04-16T05:18:38.315Z,23.07
2019-04-16T05:19:13.770Z,19.70
2019-04-16T05:19:46.128Z,22.37
2019-04-16T05:20:19.776Z,21.33
2019-04-16T05:20:53.330Z,20.27
2019-04-16T05:21:26.733Z,18.02
2019-04-16T05:22:00.140Z,17.32
2019-04-16T05:22:33.620Z,22.77
2019-04-16T05:23:07.115Z,20.48
2019-04-16T05:23:41.091Z,16.52
2019-04-16T05:24:15.054Z,19.60
2019-04-16T05:24:48.783Z,23.85
2019-04-16T05:25:22.223Z,20.08
2019-04-16T05:25:55.633Z,15.13
2019-04-16T05:26:29.046Z,19.17
2019-04-16T05:27:02.463Z,22.80
2019-04-16T05:27:39.948Z,17.07
2019-04-16T05:28:12.065Z,18.23
2019-04-16T05:28:46.234Z,22.82
2019-04-16T05:29:19.893Z,23.73
2019-04-16T05:29:53.333Z,18.65
2019-04-16T05:30:26.759Z,19.70
2019-04-16T05:31:00.307Z,25.20
2019-04-16T05:31:33.721Z,20.27
2019-04-16T05:32:07.186Z,16.75
2019-04-16T05:32:40.593Z,16.50
2019-04-16T05:33:14.006Z,21.93
2019-04-16T05:33:47.461Z,15.95
2019-04-16T05:34:21.040Z,17.30
2019-04-16T05:34:54.876Z,19.20
2019-04-16T05:35:28.371Z,15.45
2019-04-16T05:36:01.806Z,20.15
2019-04-16T05:36:35.225Z,20.82
2019-04-16T05:37:08.643Z,24.25
2019-04-16T05:37:42.054Z,14.65
2019-04-16T05:38:15.475Z,19.67
2019-04-16T05:38:48.881Z,13.98
2019-04-16T05:39:24.360Z,15.00
2019-04-16T05:39:58.899Z,16.70
2019-04-16T05:40:35.112Z,17.20
2019-04-16T05:41:13.601Z,20.55
2019-04-16T05:41:42.669Z,20.15
2019-04-16T05:42:16.022Z,15.90
2019-04-16T05:42:52.486Z,17.37
2019-04-16T05:43:24.510Z,14.28
2019-04-16T05:43:58.402Z,19.12
2019-04-16T05:44:34.082Z,17.70
2019-04-16T05:45:07.755Z,19.75
2019-04-16T05:45:41.160Z,16.40
2019-04-16T05:46:14.572Z,16.52
2019-04-16T05:46:48.003Z,20.02
2019-04-16T05:47:21.437Z,21.33
2019-04-16T05:47:54.845Z,20.17
2019-04-16T05:48:28.264Z,18.60
2019-04-16T05:49:01.663Z,19.02
2019-04-16T05:49:35.080Z,13.95
2019-04-16T05:50:08.504Z,14.85
2019-04-16T05:50:41.912Z,14.38
2019-04-16T05:51:15.332Z,22.15
2019-04-16T05:51:48.745Z,18.05
2019-04-16T05:52:22.185Z,16.73
2019-04-16T05:52:55.679Z,16.37
2019-04-16T05:53:29.098Z,20.43
2019-04-16T05:54:04.156Z,16.45
2019-04-16T05:54:54.008Z,18.67
2019-04-16T05:55:31.713Z,16.00
2019-04-16T05:56:24.983Z,15.83
2019-04-16T05:57:00.371Z,16.37
2019-04-16T05:57:35.446Z,17.65
2019-04-16T05:58:08.883Z,17.25
2019-04-16T05:58:42.302Z,18.48
2019-04-16T05:59:15.719Z,16.12
2019-04-16T05:59:49.136Z,21.65
2019-04-16T06:00:24.183Z,17.07
2019-04-16T06:01:02.155Z,13.58
2019-04-16T06:01:37.210Z,15.60
2019-04-16T06:02:15.097Z,18.50
2019-04-16T06:02:49.936Z,13.90
2019-04-16T06:03:22.506Z,18.42
2019-04-16T06:03:55.947Z,18.57
2019-04-16T06:04:29.363Z,18.60
2019-04-16T06:05:02.778Z,18.27
2019-04-16T06:05:36.193Z,19.50
2019-04-16T06:06:09.605Z,20.23
2019-04-16T06:06:43.017Z,16.00
2019-04-16T06:07:16.431Z,21.48
2019-04-16T06:07:49.841Z,14.05
2019-04-16T06:08:23.285Z,13.25
2019-04-16T06:08:56.722Z,17.52
2019-04-16T06:09:30.125Z,17.60
2019-04-16T06:10:06.917Z,21.50
2019-04-16T06:10:40.411Z,16.95
2019-04-16T06:11:27.730Z,15.50
2019-04-16T06:11:48.878Z,18.65
2019-04-16T06:12:23.999Z,18.50
2019-04-16T06:13:15.455Z,13.08
2019-04-16T06:13:56.670Z,9.03
2019-04-16T06:14:34.741Z,18.05
2019-04-16T06:15:15.400Z,15.75
2019-04-16T06:15:53.997Z,18.73
2019-04-16T06:16:34.971Z,29.85
2019-04-16T06:17:10.025Z,21.27
2019-04-16T06:17:51.352Z,17.40
2019-04-16T06:18:26.382Z,12.95
2019-04-16T06:19:11.436Z,18.73
2019-04-16T06:19:52.782Z,21.45
2019-04-16T06:20:27.833Z,21.35
2019-04-16T06:21:05.582Z,20.62
2019-04-16T06:21:43.372Z,18.65
2019-04-16T06:22:18.428Z,15.05
2019-04-16T06:23:00.637Z,20.25
2019-04-16T06:23:48.105Z,13.50
2019-04-16T06:24:24.844Z,16.50
2019-04-16T06:25:00.263Z,16.52
2019-04-16T06:25:35.326Z,16.52
2019-04-16T06:26:19.175Z,16.32
2019-04-16T06:27:03.133Z,16.02
2019-04-16T06:27:52.983Z,16.90
2019-04-16T06:28:37.015Z,12.78
2019-04-16T06:29:14.709Z,19.12
2019-04-16T06:29:49.784Z,14.53
2019-04-16T06:30:33.926Z,11.80
2019-04-16T06:31:10.537Z,13.30
2019-04-16T06:32:02.041Z,15.70
2019-04-16T06:32:37.101Z,15.90
2019-04-16T06:33:12.154Z,12.93
2019-04-16T06:33:47.205Z,16.50
2019-04-16T06:34:38.510Z,16.12
2019-04-16T06:35:42.563Z,11.30
2019-04-16T06:36:23.479Z,11.68
2019-04-16T06:37:01.180Z,9.70
2019-04-16T06:37:54.594Z,14.63
2019-04-16T06:38:29.651Z,13.83
2019-04-16T06:39:10.649Z,12.73
2019-04-16T06:40:39.340Z,13.35
2019-04-16T06:41:20.204Z,12.25
2019-04-16T06:42:11.303Z,13.75
2019-04-16T06:42:51.450Z,14.43
2019-04-16T06:43:27.248Z,11.83
2019-04-16T06:44:04.025Z,13.18
2019-04-16T06:44:55.446Z,12.03
2019-04-16T06:45:36.381Z,9.80
2019-04-16T06:46:19.099Z,12.25
2019-04-16T06:47:11.190Z,12.82
2019-04-16T06:47:52.572Z,10.30
2019-04-16T06:48:36.581Z,15.00
2019-04-16T06:49:26.783Z,10.03
2019-04-16T06:50:30.564Z,13.60
2019-04-16T06:50:57.226Z,13.13
2019-04-16T06:51:32.294Z,14.15
2019-04-16T06:52:17.382Z,13.70
2019-04-16T06:53:04.570Z,17.62
2019-04-16T06:53:42.333Z,20.75
2019-04-16T06:54:31.613Z,17.15
2019-04-16T06:55:14.611Z,10.98
2019-04-16T06:56:01.793Z,12.18
2019-04-16T06:56:53.016Z,9.38
2019-04-16T06:57:28.092Z,12.60
2019-04-16T06:58:03.152Z,14.35
2019-04-16T06:58:51.221Z,12.45
2019-04-16T06:59:29.448Z,10.95
2019-04-16T07:00:14.866Z,11.90
2019-04-16T07:00:55.681Z,13.75
2019-04-16T07:01:36.801Z,11.12
2019-04-16T07:02:12.836Z,12.53
2019-04-16T07:03:01.851Z,10.72
2019-04-16T07:03:39.561Z,9.18
2019-04-16T07:04:17.284Z,22.00
2019-04-16T07:04:55.311Z,11.03
2019-04-16T07:05:35.928Z,14.13
2019-04-16T07:06:27.214Z,10.03
2019-04-16T07:07:10.807Z,10.88
2019-04-16T07:07:46.925Z,12.07
2019-04-16T07:08:38.653Z,10.48
2019-04-16T07:09:58.252Z,10.68
2019-04-16T07:10:45.254Z,8.03
2019-04-16T07:11:26.032Z,11.40
2019-04-16T07:12:03.696Z,12.37
2019-04-16T07:12:38.475Z,16.82
2019-04-16T07:13:12.255Z,9.93
2019-04-16T07:13:45.684Z,11.53
2019-04-16T07:14:19.104Z,13.72
2019-04-16T07:14:52.522Z,11.68
2019-04-16T07:15:28.600Z,14.80
2019-04-16T07:16:00.998Z,9.28
2019-04-16T07:16:34.415Z,10.23
2019-04-16T07:17:07.825Z,7.00
2019-04-16T07:17:41.241Z,8.73
2019-04-16T07:18:14.683Z,10.70
2019-04-16T07:18:50.848Z,11.70
2019-04-16T07:19:24.273Z,7.55
2019-04-16T07:19:57.684Z,8.23
2019-04-16T07:20:31.099Z,11.65
2019-04-16T07:21:04.508Z,8.20
2019-04-16T07:21:37.990Z,8.20
2019-04-16T07:22:11.503Z,9.28
2019-04-16T07:22:45.044Z,9.03
2019-04-16T07:23:23.635Z,7.62
2019-04-16T07:23:57.958Z,7.15
2019-04-16T07:24:30.802Z,9.33
2019-04-16T07:25:06.303Z,9.08
2019-04-16T07:25:42.726Z,10.18
2019-04-16T07:26:15.554Z,8.28
2019-04-16T07:26:49.177Z,9.83
2019-04-16T07:27:22.747Z,11.25
2019-04-16T07:27:58.772Z,15.88
2019-04-16T07:28:35.008Z,10.98
2019-04-16T07:29:12.300Z,9.28
2019-04-16T07:29:50.265Z,12.60
2019-04-16T07:30:28.769Z,7.17
2019-04-16T07:31:32.722Z,7.45
2019-04-16T07:31:58.687Z,12.95
2019-04-16T07:32:49.869Z,4.97
2019-04-16T07:33:30.605Z,9.13
2019-04-16T07:34:08.287Z,10.43
2019-04-16T07:34:46.247Z,7.83
2019-04-16T07:35:37.317Z,8.98
2019-04-16T07:36:24.281Z,7.85
2019-04-16T07:37:12.796Z,6.03
2019-04-16T07:38:05.786Z,7.50
2019-04-16T07:38:49.408Z,5.95
2019-04-16T07:39:39.362Z,9.55
2019-04-16T07:40:30.587Z,6.67
2019-04-16T07:41:17.033Z,6.00
2019-04-16T07:42:09.531Z,7.33
2019-04-16T07:42:50.963Z,7.35